Nearby METAR Reports

 

EGSS - Stansted Airport, United Kingdom
Distance from station: NW 15mi, 24km
Updated: 18/01/2019 11:20
Clear
Clear
 Wind from SSE
Wind: SSE 9 mph , 15 km/h
Temperature: 3°C
Wind Chill: -1°C
Dew Point: -1°C
Humidity: 75%
Barometer: 1017 hPa
Clouds: Clear
Visibility: 6 miles , 10 km
2019/01/18 11:20 EGSS 181120Z AUTO 15008KT 9999 NCD 03/M01 Q1017
EGMC - Southend-On-Sea, United Kingdom
Distance from station: SE 15mi, 25km
Updated: 18/01/2019 11:20
Clear
Clear
 Wind from S
Wind: S 10 mph , 17 km/h
Temperature: 4°C
Wind Chill: 0°C
Dew Point: -1°C
Humidity: 70%
Barometer: 1018 hPa
Summary: Clear
Visibility: greater than 7 miles , 10 km
2019/01/18 11:20 EGMC 181120Z 17009KT CAVOK 04/M01 Q1018
 
EGLC - London City Airp, United Kingdom
Distance from station: SW 24mi, 39km
Updated: 18/01/2019 11:20
Clear
Clear
 Wind from SE
Wind: SE 8 mph , 13 km/h
Temperature: 5°C
Wind Chill: 2°C
Dew Point: 0°C
Humidity: 70%
Barometer: 1017 hPa
Clouds: Clear
Visibility: 6 miles , 10 km
2019/01/18 11:20 EGLC 181120Z AUTO 13007KT 9999 NCD 05/M00 Q1017
EGUW - Wattisham Raf, United Kingdom
Distance from station: NE 34mi, 54km
Updated: 18/01/2019 10:50
Clear
Clear
 Wind from S
Wind: S 7 mph , 11 km/h
Temperature: 1°C
Wind Chill: -2°C
Dew Point: -1°C
Humidity: 87%
Barometer: 1018 hPa
Summary: Clear
Visibility: greater than 7 miles , 10 km
2019/01/18 10:50 EGUW 181050Z 17006KT CAVOK 01/M01 Q1018 BLU NOSIG
 
EGGW - Luton Airport, United Kingdom
Distance from station: WNW 37mi, 59km
Updated: 18/01/2019 11:20
Clear
Clear
 Wind from SE
Wind: SE 9 mph , 15 km/h
Temperature: 3°C
Wind Chill: -1°C
Dew Point: -1°C
Humidity: 75%
Barometer: 1016 hPa
Clouds: Clear
Visibility: 6 miles , 10 km
2019/01/18 11:20 EGGW 181120Z AUTO 14008KT 9999 NCD 03/M01 Q1016
EGWU - Northolt Raf, United Kingdom
Distance from station: WSW 40mi, 64km
Updated: 18/01/2019 10:50
Mostly cloudy
Mostly cloudy
 Wind from SE
Wind: SE 6 mph , 9 km/h
Temperature: 3°C
Wind Chill: 0°C
Dew Point: -1°C
Humidity: 75%
Barometer: 1017 hPa
Clouds: Mostly cloudy
Visibility: 6 miles , 10 km
Cloud details: Few Clouds 914 m
Mostly cloudy 3658 m
Mostly cloudy 5486 m
2019/01/18 10:50 EGWU 181050Z 14005KT 9999 FEW030 BKN120 BKN180 03/M01 Q1017 BLU NOSIG